createdAt,value
2023-01-19T00:01:37.084Z,97583.44
2023-01-19T00:04:05.522Z,97587.44
2023-01-19T00:06:33.673Z,97590.00
2023-01-19T00:09:01.775Z,97588.62
2023-01-19T00:11:30.088Z,97590.22
2023-01-19T00:13:58.987Z,97587.06
2023-01-19T00:16:26.993Z,97589.94
2023-01-19T00:18:55.841Z,97592.19
2023-01-19T00:21:24.859Z,97594.84
2023-01-19T00:23:53.012Z,97590.84
2023-01-19T00:26:22.518Z,97585.34
2023-01-19T00:28:50.605Z,97584.06
2023-01-19T00:31:20.899Z,97581.22
2023-01-19T00:33:50.316Z,97576.06
2023-01-19T00:36:18.468Z,97576.59
2023-01-19T00:38:46.485Z,97580.34
2023-01-19T00:41:14.970Z,97578.06
2023-01-19T00:43:42.926Z,97578.00
2023-01-19T00:46:11.048Z,97575.66
2023-01-19T00:48:39.546Z,97577.47
2023-01-19T00:51:07.496Z,97571.09
2023-01-19T00:53:35.538Z,97566.25
2023-01-19T00:56:03.880Z,97569.59
2023-01-19T00:58:31.985Z,97570.00
2023-01-19T01:01:03.991Z,97571.88
2023-01-19T01:03:33.288Z,97571.78
2023-01-19T01:06:01.190Z,97573.97
2023-01-19T01:08:29.372Z,97574.72
2023-01-19T01:10:57.728Z,97576.69
2023-01-19T01:13:27.940Z,97576.53
2023-01-19T01:15:56.735Z,97583.06
2023-01-19T01:18:25.363Z,97578.69
2023-01-19T01:20:55.362Z,97589.25
2023-01-19T01:23:24.599Z,97591.00
2023-01-19T01:25:52.966Z,97584.06
2023-01-19T01:28:20.918Z,97580.66
2023-01-19T01:30:54.108Z,97581.72
2023-01-19T01:33:40.090Z,97585.75
2023-01-19T01:36:11.963Z,97589.78
2023-01-19T01:38:41.126Z,97593.03
2023-01-19T01:41:09.825Z,97597.88
2023-01-19T01:43:46.122Z,97607.47
2023-01-19T01:46:15.792Z,97606.75
2023-01-19T01:48:49.060Z,97615.25
2023-01-19T01:51:30.130Z,97617.28
2023-01-19T01:54:10.512Z,97615.41
2023-01-19T01:56:44.716Z,97613.72
2023-01-19T01:59:26.137Z,97625.41
2023-01-19T02:02:19.436Z,97628.44
2023-01-19T02:04:51.432Z,97630.63
2023-01-19T02:07:52.388Z,97637.28
2023-01-19T02:10:39.269Z,97638.31
2023-01-19T02:13:23.482Z,97631.47
2023-01-19T02:15:58.049Z,97609.81
2023-01-19T02:18:31.069Z,97577.19
2023-01-19T02:21:19.263Z,97566.38
2023-01-19T02:23:52.067Z,97584.13
2023-01-19T02:26:30.348Z,97602.03
2023-01-19T02:29:00.211Z,97612.91
2023-01-19T02:31:30.653Z,97628.03
2023-01-19T02:34:00.362Z,97636.31
2023-01-19T02:36:36.759Z,97622.69
2023-01-19T02:39:05.530Z,97599.41
2023-01-19T02:41:39.206Z,97593.28
2023-01-19T02:44:09.831Z,97612.28
2023-01-19T02:46:38.799Z,97602.59
2023-01-19T02:49:06.827Z,97597.12
2023-01-19T02:51:34.989Z,97594.41
2023-01-19T02:54:13.644Z,97593.81
2023-01-19T02:56:51.376Z,97596.06
2023-01-19T02:59:48.058Z,97604.38
2023-01-19T03:02:51.307Z,97600.84
2023-01-19T03:05:26.200Z,97605.81
2023-01-19T03:07:59.519Z,97606.38
2023-01-19T03:10:43.710Z,97606.19
2023-01-19T03:13:43.400Z,97609.72
2023-01-19T03:16:33.047Z,97624.59
2023-01-19T03:19:17.220Z,97647.25
2023-01-19T03:21:48.641Z,97641.38
2023-01-19T03:24:17.940Z,97645.09
2023-01-19T03:26:50.330Z,97635.41
2023-01-19T03:29:19.051Z,97602.81
2023-01-19T03:31:50.155Z,97585.53
2023-01-19T03:34:19.379Z,97580.59
2023-01-19T03:36:51.247Z,97578.09
2023-01-19T03:39:22.799Z,97578.00
2023-01-19T03:41:55.600Z,97566.28
2023-01-19T03:44:24.929Z,97545.50
2023-01-19T03:49:21.364Z,97544.03
2023-01-19T03:51:49.333Z,97549.00
2023-01-19T03:54:17.928Z,97551.72
2023-01-19T03:56:45.819Z,97552.25
2023-01-19T03:59:17.615Z,97562.66
2023-01-19T04:04:15.984Z,97603.34
2023-01-19T04:06:44.410Z,97623.53
2023-01-19T04:09:12.389Z,97608.13
2023-01-19T04:11:40.590Z,97608.63
2023-01-19T04:14:08.519Z,97612.62
2023-01-19T04:16:36.457Z,97624.16
2023-01-19T04:19:04.798Z,97623.94
2023-01-19T04:21:32.688Z,97619.44
2023-01-19T04:24:01.308Z,97610.03
2023-01-19T04:26:29.940Z,97604.09
2023-01-19T04:28:58.577Z,97594.78
2023-01-19T04:31:26.485Z,97587.16
2023-01-19T04:33:56.082Z,97593.47
2023-01-19T04:36:24.223Z,97590.81
2023-01-19T04:38:52.079Z,97584.47
2023-01-19T04:41:20.608Z,97580.00
2023-01-19T04:43:48.707Z,97584.37
2023-01-19T04:46:16.714Z,97590.19
2023-01-19T04:48:45.077Z,97585.41
2023-01-19T04:51:13.032Z,97583.59
2023-01-19T04:53:40.965Z,97607.59
2023-01-19T04:56:09.311Z,97613.50
2023-01-19T04:58:37.239Z,97614.56
2023-01-19T05:01:09.996Z,97609.38
2023-01-19T05:03:38.481Z,97604.59
2023-01-19T05:06:06.817Z,97612.28
2023-01-19T05:08:34.888Z,97603.62
2023-01-19T05:11:03.220Z,97599.19
2023-01-19T05:13:31.243Z,97596.62
2023-01-19T05:15:59.180Z,97604.25
2023-01-19T05:18:27.549Z,97626.88
2023-01-19T05:20:56.066Z,97641.62
2023-01-19T05:23:24.530Z,97649.09
2023-01-19T05:25:52.838Z,97660.16
2023-01-19T05:28:21.889Z,97667.97
2023-01-19T05:30:50.796Z,97672.03
2023-01-19T05:33:21.754Z,97673.19
2023-01-19T05:35:53.727Z,97670.38
2023-01-19T05:38:34.396Z,97665.66
2023-01-19T05:41:03.433Z,97652.56
2023-01-19T05:43:31.627Z,97654.25
2023-01-19T05:45:59.502Z,97656.06
2023-01-19T05:48:27.403Z,97653.47
2023-01-19T05:51:02.216Z,97646.53
2023-01-19T05:53:30.198Z,97649.34
2023-01-19T05:56:03.032Z,97656.28
2023-01-19T05:58:31.398Z,97645.16
2023-01-19T06:01:05.712Z,97634.91
2023-01-19T06:03:35.113Z,97632.47
2023-01-19T06:06:04.021Z,97642.72
2023-01-19T06:08:32.583Z,97646.84
2023-01-19T06:11:01.067Z,97653.03
2023-01-19T06:13:29.208Z,97634.16
2023-01-19T06:15:59.334Z,97612.75
2023-01-19T06:18:28.041Z,97623.06
2023-01-19T06:20:59.014Z,97611.97
2023-01-19T06:23:30.318Z,97594.53
2023-01-19T06:25:58.257Z,97590.00
2023-01-19T06:28:26.237Z,97587.22
2023-01-19T06:30:55.713Z,97584.44
2023-01-19T06:33:24.787Z,97584.50
2023-01-19T06:35:52.755Z,97609.50
2023-01-19T06:38:21.111Z,97625.75
2023-01-19T06:40:58.769Z,97646.31
2023-01-19T06:43:27.440Z,97640.84
2023-01-19T06:45:56.410Z,97651.25
2023-01-19T06:48:24.880Z,97644.25
2023-01-19T06:50:53.236Z,97640.72
2023-01-19T06:53:22.532Z,97632.41
2023-01-19T06:55:50.589Z,97625.31
2023-01-19T06:58:19.090Z,97612.38
2023-01-19T07:00:48.744Z,97622.94
2023-01-19T07:03:22.285Z,97610.53
2023-01-19T07:05:54.161Z,97613.47
2023-01-19T07:08:22.388Z,97620.38
2023-01-19T07:11:26.445Z,97611.34
2023-01-19T07:13:40.131Z,97623.41
2023-01-19T07:16:10.737Z,97622.47
2023-01-19T07:18:41.764Z,97622.59
2023-01-19T07:21:10.119Z,97631.66
2023-01-19T07:23:38.776Z,97640.53
2023-01-19T07:26:08.761Z,97637.78
2023-01-19T07:28:37.437Z,97652.13
2023-01-19T07:31:05.653Z,97662.69
2023-01-19T07:33:33.991Z,97666.81
2023-01-19T07:36:02.491Z,97666.06
2023-01-19T07:38:30.467Z,97672.03
2023-01-19T07:41:06.125Z,97669.22
2023-01-19T07:43:34.608Z,97666.44
2023-01-19T07:46:04.992Z,97672.88
2023-01-19T07:48:33.086Z,97677.16
2023-01-19T07:51:12.456Z,97679.56
2023-01-19T07:53:42.085Z,97686.38
2023-01-19T07:56:10.870Z,97680.31
2023-01-19T07:58:39.488Z,97680.09
2023-01-19T08:01:09.864Z,97681.91
2023-01-19T08:03:38.628Z,97690.63
2023-01-19T08:06:07.190Z,97688.19
2023-01-19T08:08:36.735Z,97676.94
2023-01-19T08:11:05.445Z,97674.28
2023-01-19T08:13:33.438Z,97664.84
2023-01-19T08:16:01.522Z,97674.25
2023-01-19T08:18:29.979Z,97666.69
2023-01-19T08:21:01.842Z,97656.00
2023-01-19T08:23:31.970Z,97657.47
2023-01-19T08:26:00.014Z,97649.38
2023-01-19T08:28:27.953Z,97652.03
2023-01-19T08:30:56.415Z,97660.09
2023-01-19T08:33:28.061Z,97652.94
2023-01-19T08:35:56.959Z,97665.94
2023-01-19T08:38:25.060Z,97671.03
2023-01-19T08:40:53.498Z,97681.63
2023-01-19T08:43:21.970Z,97682.44
2023-01-19T08:45:53.598Z,97684.00
2023-01-19T08:48:23.795Z,97683.16
2023-01-19T08:50:53.108Z,97686.53
2023-01-19T08:53:23.838Z,97681.28
2023-01-19T08:55:57.655Z,97679.78
2023-01-19T08:58:27.148Z,97685.72
2023-01-19T09:00:55.385Z,97688.41
2023-01-19T09:03:23.872Z,97677.31
2023-01-19T09:05:52.430Z,97682.28
2023-01-19T09:08:20.397Z,97676.47
2023-01-19T09:10:50.233Z,97681.41
2023-01-19T09:13:19.595Z,97683.13
2023-01-19T09:15:47.838Z,97698.53
2023-01-19T09:18:18.733Z,97703.59
2023-01-19T09:20:49.838Z,97701.25
2023-01-19T09:23:20.940Z,97704.75
2023-01-19T09:25:49.727Z,97699.25
2023-01-19T09:28:18.038Z,97695.34
2023-01-19T09:30:48.901Z,97683.31
2023-01-19T09:33:20.871Z,97685.69
2023-01-19T09:35:49.686Z,97686.56
2023-01-19T09:38:18.819Z,97700.41
2023-01-19T09:40:54.440Z,97704.78
2023-01-19T09:43:27.594Z,97701.47
2023-01-19T09:45:58.635Z,97686.78
2023-01-19T09:48:42.245Z,97691.41
2023-01-19T09:51:16.717Z,97685.13
2023-01-19T09:54:05.368Z,97684.37
2023-01-19T09:56:33.533Z,97690.31
2023-01-19T09:59:03.983Z,97702.34
2023-01-19T10:01:44.929Z,97704.81
2023-01-19T10:04:54.904Z,97704.03
2023-01-19T10:07:53.540Z,97706.31
2023-01-19T10:10:23.145Z,97706.84
2023-01-19T10:13:16.928Z,97699.00
2023-01-19T10:16:14.658Z,97701.69
2023-01-19T10:18:48.116Z,97702.75
2023-01-19T10:21:23.146Z,97699.50
2023-01-19T10:23:58.946Z,97706.44
2023-01-19T10:26:36.662Z,97701.25
2023-01-19T10:29:14.765Z,97699.50
2023-01-19T10:31:45.235Z,97713.97
2023-01-19T10:34:20.923Z,97711.53
2023-01-19T10:36:59.523Z,97704.44
2023-01-19T10:39:27.718Z,97719.34
2023-01-19T10:41:58.606Z,97715.69
2023-01-19T10:44:30.300Z,97728.44
2023-01-19T10:46:59.727Z,97723.41
2023-01-19T10:49:37.474Z,97721.69
2023-01-19T10:52:08.280Z,97728.72
2023-01-19T10:54:41.003Z,97726.84
2023-01-19T10:57:13.920Z,97730.37
2023-01-19T10:59:45.000Z,97734.50
2023-01-19T11:02:29.477Z,97744.22
2023-01-19T11:05:02.884Z,97749.12
2023-01-19T11:07:33.532Z,97742.56
2023-01-19T11:10:20.975Z,97732.84
2023-01-19T11:13:02.007Z,97728.47
2023-01-19T11:15:40.924Z,97728.44
2023-01-19T11:18:18.514Z,97734.72
2023-01-19T11:20:51.834Z,97731.28
2023-01-19T11:23:20.260Z,97727.78
2023-01-19T11:25:50.306Z,97718.38
2023-01-19T11:28:27.646Z,97722.59
2023-01-19T11:31:17.105Z,97722.50
2023-01-19T11:33:52.062Z,97725.34
2023-01-19T11:36:26.621Z,97735.63
2023-01-19T11:38:57.065Z,97731.28
2023-01-19T11:41:25.481Z,97733.88
2023-01-19T11:43:56.897Z,97742.38
2023-01-19T11:46:29.773Z,97727.00
2023-01-19T11:49:05.346Z,97732.88
2023-01-19T11:51:44.935Z,97738.84
2023-01-19T11:54:21.517Z,97739.81
2023-01-19T11:56:53.992Z,97742.34
2023-01-19T11:59:25.167Z,97744.00
2023-01-19T12:02:01.004Z,97740.75
2023-01-19T12:04:38.723Z,97744.00
2023-01-19T12:07:10.817Z,97752.69
2023-01-19T12:09:47.018Z,97759.50
2023-01-19T12:12:35.876Z,97756.03
2023-01-19T12:15:23.046Z,97764.78
2023-01-19T12:17:54.785Z,97779.31
2023-01-19T12:20:42.004Z,97774.03
2023-01-19T12:23:45.591Z,97783.50
2023-01-19T12:26:34.996Z,97790.22
2023-01-19T12:29:18.305Z,97792.88
2023-01-19T12:32:19.148Z,97793.00
2023-01-19T12:34:53.797Z,97798.09
2023-01-19T12:37:32.402Z,97809.41
2023-01-19T12:40:22.730Z,97801.69
2023-01-19T12:43:00.251Z,97812.72
2023-01-19T12:45:34.539Z,97819.63
2023-01-19T12:48:04.891Z,97824.78
2023-01-19T12:50:40.561Z,97826.56
2023-01-19T12:53:19.300Z,97830.03
2023-01-19T12:56:00.752Z,97828.31
2023-01-19T12:58:30.308Z,97827.34
2023-01-19T13:01:17.846Z,97828.25
2023-01-19T13:04:10.072Z,97837.59
2023-01-19T13:06:48.526Z,97846.88
2023-01-19T13:09:34.681Z,97852.94
2023-01-19T13:12:17.608Z,97855.59
2023-01-19T13:14:53.856Z,97867.47
2023-01-19T13:17:27.365Z,97860.66
2023-01-19T13:20:24.240Z,97872.63
2023-01-19T13:23:24.201Z,97871.00
2023-01-19T13:26:08.540Z,97882.97
2023-01-19T13:28:41.277Z,97896.81
2023-01-19T13:31:10.483Z,97889.84
2023-01-19T13:33:49.573Z,97902.66
2023-01-19T13:36:32.933Z,97895.03
2023-01-19T13:39:03.964Z,97907.69
2023-01-19T13:41:36.855Z,97912.09
2023-01-19T13:44:21.125Z,97918.03
2023-01-19T13:46:51.679Z,97923.16
2023-01-19T13:49:30.469Z,97931.69
2023-01-19T13:52:15.121Z,97937.56
2023-01-19T13:54:50.325Z,97929.03
2023-01-19T13:57:32.806Z,97943.75
2023-01-19T14:00:07.100Z,97938.66
2023-01-19T14:02:42.599Z,97925.84
2023-01-19T14:05:32.204Z,97936.03
2023-01-19T14:08:05.179Z,97931.78
2023-01-19T14:10:37.117Z,97936.81
2023-01-19T14:13:26.495Z,97937.66
2023-01-19T14:15:59.150Z,97922.50
2023-01-19T14:18:33.078Z,97919.97
2023-01-19T14:21:14.964Z,97936.16
2023-01-19T14:23:45.249Z,97938.72
2023-01-19T14:26:48.621Z,97935.31
2023-01-19T14:29:47.632Z,97950.78
2023-01-19T14:32:22.145Z,97949.91
2023-01-19T14:35:04.700Z,97947.28
2023-01-19T14:37:38.195Z,97948.19
2023-01-19T14:40:11.146Z,97961.94
2023-01-19T14:43:01.155Z,97951.63
2023-01-19T14:45:43.166Z,97964.50
2023-01-19T14:48:19.165Z,97958.44
2023-01-19T14:51:02.369Z,97968.78
2023-01-19T14:53:38.142Z,97994.50
2023-01-19T14:56:06.695Z,98008.16
2023-01-19T14:58:35.914Z,98025.34
2023-01-19T15:01:04.858Z,98033.94
2023-01-19T15:03:44.243Z,98039.91
2023-01-19T15:06:21.462Z,98029.63
2023-01-19T15:08:50.521Z,98020.19
2023-01-19T15:11:33.458Z,97997.03
2023-01-19T15:14:03.243Z,98015.94
2023-01-19T15:16:34.280Z,98008.22
2023-01-19T15:19:02.501Z,97998.81
2023-01-19T15:21:30.672Z,98002.25
2023-01-19T15:23:59.237Z,98015.09
2023-01-19T15:26:27.658Z,98017.63
2023-01-19T15:28:58.022Z,98021.06
2023-01-19T15:31:27.038Z,98023.66
2023-01-19T15:33:55.235Z,98042.47
2023-01-19T15:36:24.551Z,98040.81
2023-01-19T15:38:53.219Z,98041.66
2023-01-19T15:41:30.187Z,98028.81
2023-01-19T15:43:59.234Z,98030.50
2023-01-19T15:46:27.790Z,98039.94
2023-01-19T15:48:55.893Z,98040.81
2023-01-19T15:51:26.163Z,98055.38
2023-01-19T15:53:55.167Z,98060.50
2023-01-19T15:56:26.239Z,98067.34
2023-01-19T15:58:55.242Z,98067.34
2023-01-19T16:01:35.363Z,98068.19
2023-01-19T16:04:06.019Z,98064.81
2023-01-19T16:06:34.496Z,98070.81
2023-01-19T16:09:04.115Z,98080.22
2023-01-19T16:11:34.351Z,98089.63
2023-01-19T16:14:02.808Z,98103.34
2023-01-19T16:16:32.506Z,98110.22
2023-01-19T16:19:02.879Z,98110.19
2023-01-19T16:21:32.565Z,98127.34
2023-01-19T16:24:01.017Z,98130.78
2023-01-19T16:26:36.243Z,98124.78
2023-01-19T16:29:11.063Z,98140.19
2023-01-19T16:31:40.806Z,98157.31
2023-01-19T16:34:10.005Z,98170.16
2023-01-19T16:36:40.587Z,98167.62
2023-01-19T16:39:14.375Z,98184.75
2023-01-19T16:41:45.276Z,98177.88
2023-01-19T16:44:14.752Z,98183.84
2023-01-19T16:46:45.399Z,98180.47
2023-01-19T16:49:19.056Z,98191.62
2023-01-19T16:51:50.274Z,98195.88
2023-01-19T16:54:20.847Z,98207.03
2023-01-19T16:56:49.896Z,98201.87
2023-01-19T16:59:18.333Z,98208.78
2023-01-19T17:01:46.604Z,98212.22
2023-01-19T17:04:16.256Z,98212.16
2023-01-19T17:06:44.355Z,98207.03
2023-01-19T17:09:12.496Z,98211.34
2023-01-19T17:11:41.284Z,98211.25
2023-01-19T17:14:16.375Z,98220.69
2023-01-19T17:16:44.803Z,98229.28
2023-01-19T17:19:17.457Z,98233.50
2023-01-19T17:21:46.995Z,98236.06
2023-01-19T17:24:16.188Z,98231.81
2023-01-19T17:26:46.127Z,98234.38
2023-01-19T17:29:15.116Z,98241.25
2023-01-19T17:31:43.498Z,98238.63
2023-01-19T17:34:11.555Z,98249.75
2023-01-19T17:36:41.265Z,98246.25
2023-01-19T17:39:15.061Z,98238.69
2023-01-19T17:41:43.563Z,98229.31
2023-01-19T17:44:11.953Z,98241.25
2023-01-19T17:46:40.427Z,98256.53
2023-01-19T17:49:09.145Z,98256.53
2023-01-19T17:51:37.470Z,98253.97
2023-01-19T17:54:05.977Z,98258.28
2023-01-19T17:56:37.891Z,98262.56
2023-01-19T17:59:08.206Z,98269.41
2023-01-19T18:01:40.261Z,98279.78
2023-01-19T18:04:09.628Z,98290.91
2023-01-19T18:06:38.428Z,98284.91
2023-01-19T18:09:09.391Z,98295.97
2023-01-19T18:11:37.787Z,98285.81
2023-01-19T18:14:06.874Z,98299.56
2023-01-19T18:16:35.274Z,98296.19
2023-01-19T18:19:03.774Z,98287.63
2023-01-19T18:21:31.784Z,98289.19
2023-01-19T18:24:04.671Z,98295.31
2023-01-19T18:26:34.943Z,98299.53
2023-01-19T18:29:02.903Z,98296.16
2023-01-19T18:31:31.379Z,98302.06
2023-01-19T18:34:00.082Z,98312.47
2023-01-19T18:36:28.109Z,98299.44
2023-01-19T18:38:56.062Z,98304.62
2023-01-19T18:41:29.672Z,98302.88
2023-01-19T18:44:03.851Z,98302.00
2023-01-19T18:46:32.519Z,98298.59
2023-01-19T18:49:00.509Z,98303.69
2023-01-19T18:51:28.595Z,98305.44
2023-01-19T18:53:58.058Z,98292.47
2023-01-19T18:56:26.689Z,98302.94
2023-01-19T18:58:54.857Z,98302.09
2023-01-19T19:01:25.797Z,98297.88
2023-01-19T19:03:54.895Z,98314.00
2023-01-19T19:06:27.097Z,98308.84
2023-01-19T19:08:57.418Z,98307.16
2023-01-19T19:11:27.111Z,98321.84
2023-01-19T19:14:00.746Z,98321.75
2023-01-19T19:16:30.002Z,98320.19
2023-01-19T19:18:59.403Z,98319.22
2023-01-19T19:21:27.567Z,98332.09
2023-01-19T19:23:57.333Z,98342.28
2023-01-19T19:26:28.633Z,98351.69
2023-01-19T19:28:57.085Z,98354.31
2023-01-19T19:31:26.375Z,98358.62
2023-01-19T19:33:56.129Z,98376.59
2023-01-19T19:36:25.842Z,98373.19
2023-01-19T19:38:54.085Z,98372.31
2023-01-19T19:41:24.383Z,98376.50
2023-01-19T19:43:52.969Z,98373.09
2023-01-19T19:46:23.041Z,98384.13
2023-01-19T19:48:51.405Z,98384.00
2023-01-19T19:51:23.483Z,98385.91
2023-01-19T19:53:53.026Z,98388.44
2023-01-19T19:56:23.181Z,98379.69
2023-01-19T19:58:53.836Z,98382.28
2023-01-19T20:01:27.624Z,98388.31
2023-01-19T20:03:58.958Z,98389.16
2023-01-19T20:06:28.544Z,98384.84
2023-01-19T20:08:57.113Z,98395.34
2023-01-19T20:11:27.764Z,98390.84
2023-01-19T20:13:55.671Z,98385.87
2023-01-19T20:16:24.746Z,98382.41
2023-01-19T20:18:54.471Z,98374.75
2023-01-19T20:21:27.541Z,98386.72
2023-01-19T20:23:57.487Z,98387.47
2023-01-19T20:26:29.426Z,98383.97
2023-01-19T20:29:03.447Z,98389.12
2023-01-19T20:31:33.583Z,98389.97
2023-01-19T20:34:04.746Z,98375.56
2023-01-19T20:36:32.744Z,98377.16
2023-01-19T20:39:00.804Z,98377.81
2023-01-19T20:41:29.118Z,98369.37
2023-01-19T20:43:57.166Z,98375.41
2023-01-19T20:46:25.047Z,98374.53
2023-01-19T20:48:54.884Z,98373.03
2023-01-19T20:51:23.249Z,98372.84
2023-01-19T20:53:51.233Z,98372.75
2023-01-19T20:56:19.532Z,98374.56
2023-01-19T20:58:48.107Z,98377.84
2023-01-19T21:01:22.295Z,98377.00
2023-01-19T21:03:51.814Z,98372.59
2023-01-19T21:06:21.150Z,98379.31
2023-01-19T21:08:52.139Z,98392.22
2023-01-19T21:11:21.407Z,98391.69
2023-01-19T21:13:50.817Z,98398.34
2023-01-19T21:16:18.856Z,98385.75
2023-01-19T21:18:47.073Z,98390.06
2023-01-19T21:21:28.984Z,98392.50
2023-01-19T21:24:04.425Z,98396.81
2023-01-19T21:26:33.759Z,98384.00
2023-01-19T21:29:03.253Z,98391.72
2023-01-19T21:31:31.483Z,98389.94
2023-01-19T21:33:59.527Z,98394.22
2023-01-19T21:36:27.875Z,98398.47
2023-01-19T21:39:00.629Z,98409.44
2023-01-19T21:41:30.399Z,98418.06
2023-01-19T21:44:00.448Z,98424.88
2023-01-19T21:46:33.382Z,98420.72
2023-01-19T21:49:04.784Z,98424.94
2023-01-19T21:51:35.067Z,98423.13
2023-01-19T21:54:04.910Z,98442.81
2023-01-19T21:56:33.346Z,98472.03
2023-01-19T21:59:04.463Z,98499.66
2023-01-19T22:01:34.027Z,98523.53
2023-01-19T22:04:02.661Z,98528.75
2023-01-19T22:06:30.617Z,98530.50
2023-01-19T22:08:58.627Z,98521.91
2023-01-19T22:11:27.557Z,98506.16
2023-01-19T22:13:55.491Z,98496.22
2023-01-19T22:16:24.053Z,98486.03
2023-01-19T22:18:59.504Z,98485.97
2023-01-19T22:21:33.176Z,98484.25
2023-01-19T22:24:02.766Z,98490.47
2023-01-19T22:26:32.363Z,98486.03
2023-01-19T22:29:01.459Z,98490.44
2023-01-19T22:31:30.773Z,98482.63
2023-01-19T22:33:59.007Z,98468.97
2023-01-19T22:36:31.526Z,98467.94
2023-01-19T22:39:09.095Z,98466.44
2023-01-19T22:41:42.425Z,98480.94
2023-01-19T22:44:15.732Z,98486.28
2023-01-19T22:46:44.330Z,98485.38
2023-01-19T22:49:15.055Z,98478.22
2023-01-19T22:51:43.556Z,98468.75
2023-01-19T22:54:11.774Z,98475.16
2023-01-19T22:56:41.408Z,98472.28
2023-01-19T22:59:09.725Z,98476.63
2023-01-19T23:01:41.485Z,98476.59
2023-01-19T23:04:14.011Z,98460.97
2023-01-19T23:06:42.894Z,98456.69
2023-01-19T23:09:13.468Z,98457.72
2023-01-19T23:11:43.516Z,98447.56
2023-01-19T23:14:15.498Z,98457.91
2023-01-19T23:16:43.455Z,98450.31
2023-01-19T23:19:12.605Z,98446.16
2023-01-19T23:21:40.937Z,98432.97
2023-01-19T23:24:09.084Z,98425.09
2023-01-19T23:26:38.510Z,98422.66
2023-01-19T23:29:12.297Z,98421.56
2023-01-19T23:31:44.297Z,98415.34
2023-01-19T23:34:13.498Z,98417.13
2023-01-19T23:36:42.709Z,98418.78
2023-01-19T23:39:16.330Z,98432.53
2023-01-19T23:41:44.796Z,98425.84
2023-01-19T23:44:13.006Z,98440.22
2023-01-19T23:46:40.994Z,98446.13
2023-01-19T23:49:09.159Z,98461.94
2023-01-19T23:51:37.138Z,98468.47
2023-01-19T23:54:05.112Z,98470.22
2023-01-19T23:56:35.911Z,98481.78
2023-01-19T23:59:06.914Z,98468.66
